createdAt,value
2023-01-17T00:00:08.771Z,73
2023-01-17T00:01:08.701Z,73
2023-01-17T00:02:08.130Z,74
2023-01-17T00:03:07.000Z,74
2023-01-17T00:04:08.511Z,74
2023-01-17T00:05:08.434Z,74
2023-01-17T00:06:07.817Z,74
2023-01-17T00:07:07.801Z,73
2023-01-17T00:08:08.211Z,73
2023-01-17T00:09:08.654Z,73
2023-01-17T00:10:07.897Z,73
2023-01-17T00:11:08.352Z,73
2023-01-17T00:12:07.847Z,73
2023-01-17T00:13:08.009Z,73
2023-01-17T00:14:08.714Z,73
2023-01-17T00:15:08.131Z,74
2023-01-17T00:16:09.056Z,74
2023-01-17T00:18:08.347Z,74
2023-01-17T00:19:08.732Z,74
2023-01-17T00:20:08.191Z,74
2023-01-17T00:21:08.587Z,74
2023-01-17T00:22:08.061Z,74
2023-01-17T00:23:08.447Z,74
2023-01-17T00:24:08.272Z,74
2023-01-17T00:25:08.575Z,74
2023-01-17T00:26:08.158Z,74
2023-01-17T00:27:08.658Z,74
2023-01-17T00:29:08.486Z,74
2023-01-17T00:30:08.314Z,74
2023-01-17T00:31:08.691Z,74
2023-01-17T00:32:08.226Z,74
2023-01-17T00:33:08.671Z,74
2023-01-17T00:34:07.861Z,74
2023-01-17T00:35:08.382Z,74
2023-01-17T00:36:08.785Z,74
2023-01-17T00:37:08.456Z,74
2023-01-17T00:38:08.022Z,74
2023-01-17T00:41:08.530Z,75
2023-01-17T00:42:08.758Z,75
2023-01-17T00:43:07.790Z,75
2023-01-17T00:44:07.818Z,75
2023-01-17T00:45:08.728Z,75
2023-01-17T00:46:07.960Z,75
2023-01-17T00:47:08.292Z,75
2023-01-17T00:48:08.422Z,75
2023-01-17T00:49:07.705Z,75
2023-01-17T00:50:08.195Z,75
2023-01-17T00:51:08.485Z,75
2023-01-17T00:52:07.813Z,75
2023-01-17T00:53:08.726Z,75
2023-01-17T00:54:08.583Z,75
2023-01-17T00:55:08.821Z,75
2023-01-17T00:56:07.803Z,75
2023-01-17T00:57:08.474Z,75
2023-01-17T00:58:07.920Z,75
2023-01-17T00:59:07.919Z,75
2023-01-17T01:00:08.530Z,75
2023-01-17T01:01:08.616Z,75
2023-01-17T01:02:08.515Z,75
2023-01-17T01:05:08.036Z,75
2023-01-17T01:06:08.494Z,75
2023-01-17T01:07:08.643Z,75
2023-01-17T01:08:08.050Z,75
2023-01-17T01:09:08.373Z,75
2023-01-17T01:10:07.865Z,75
2023-01-17T01:12:08.298Z,75
2023-01-17T01:13:08.746Z,75
2023-01-17T01:14:08.558Z,75
2023-01-17T01:15:07.657Z,75
2023-01-17T01:16:08.166Z,75
2023-01-17T01:17:07.859Z,75
2023-01-17T01:18:08.204Z,75
2023-01-17T01:19:08.847Z,75
2023-01-17T01:20:07.134Z,75
2023-01-17T01:21:08.466Z,75
2023-01-17T01:22:07.935Z,75
2023-01-17T01:23:07.700Z,75
2023-01-17T01:24:08.290Z,75
2023-01-17T01:25:08.509Z,75
2023-01-17T01:26:07.920Z,75
2023-01-17T01:27:08.539Z,76
2023-01-17T01:28:07.697Z,76
2023-01-17T01:29:07.845Z,76
2023-01-17T01:30:08.455Z,76
2023-01-17T01:31:07.844Z,76
2023-01-17T01:32:08.537Z,76
2023-01-17T01:33:07.955Z,76
2023-01-17T01:34:08.612Z,76
2023-01-17T01:35:07.627Z,76
2023-01-17T01:36:08.374Z,75
2023-01-17T01:37:07.767Z,76
2023-01-17T01:38:08.415Z,75
2023-01-17T01:39:08.306Z,75
2023-01-17T01:40:08.037Z,76
2023-01-17T01:41:08.190Z,76
2023-01-17T01:42:08.277Z,76
2023-01-17T01:43:08.283Z,76
2023-01-17T01:44:07.769Z,76
2023-01-17T01:45:08.810Z,76
2023-01-17T01:46:08.487Z,76
2023-01-17T01:47:07.781Z,76
2023-01-17T01:48:08.751Z,76
2023-01-17T01:49:08.138Z,76
2023-01-17T01:50:08.610Z,76
2023-01-17T01:52:08.166Z,76
2023-01-17T01:53:08.185Z,76
2023-01-17T01:54:08.354Z,76
2023-01-17T01:55:08.737Z,76
2023-01-17T01:56:07.803Z,76
2023-01-17T01:57:08.424Z,76
2023-01-17T01:58:08.470Z,76
2023-01-17T01:59:07.682Z,77
2023-01-17T02:00:08.163Z,77
2023-01-17T02:03:08.044Z,77
2023-01-17T02:04:08.665Z,77
2023-01-17T02:06:08.407Z,77
2023-01-17T02:07:08.128Z,77
2023-01-17T02:08:08.452Z,77
2023-01-17T02:09:08.237Z,77
2023-01-17T02:10:08.609Z,77
2023-01-17T02:11:08.028Z,77
2023-01-17T02:12:08.679Z,77
2023-01-17T02:13:08.225Z,77
2023-01-17T02:14:07.852Z,77
2023-01-17T02:15:08.029Z,77
2023-01-17T02:16:08.315Z,77
2023-01-17T02:17:08.882Z,77
2023-01-17T02:18:08.121Z,77
2023-01-17T02:19:08.298Z,77
2023-01-17T02:20:08.612Z,77
2023-01-17T02:21:07.989Z,77
2023-01-17T02:22:07.790Z,77
2023-01-17T02:23:08.257Z,77
2023-01-17T02:24:08.671Z,77
2023-01-17T02:25:08.021Z,77
2023-01-17T02:26:07.932Z,77
2023-01-17T02:27:08.221Z,77
2023-01-17T02:28:07.840Z,77
2023-01-17T02:29:08.303Z,77
2023-01-17T02:30:08.382Z,77
2023-01-17T02:31:08.352Z,77
2023-01-17T02:32:07.727Z,77
2023-01-17T02:33:08.378Z,77
2023-01-17T02:34:07.889Z,77
2023-01-17T02:35:08.529Z,77
2023-01-17T02:36:08.000Z,77
2023-01-17T02:37:07.854Z,77
2023-01-17T02:38:08.336Z,77
2023-01-17T02:39:08.456Z,77
2023-01-17T02:42:08.504Z,77
2023-01-17T02:43:08.136Z,77
2023-01-17T02:45:07.831Z,77
2023-01-17T02:46:11.725Z,77
2023-01-17T02:47:08.029Z,77
2023-01-17T02:48:08.388Z,77
2023-01-17T02:49:08.268Z,77
2023-01-17T02:50:08.680Z,77
2023-01-17T02:51:08.482Z,77
2023-01-17T02:52:08.522Z,77
2023-01-17T02:53:07.947Z,77
2023-01-17T02:54:08.328Z,77
2023-01-17T02:55:08.764Z,77
2023-01-17T02:56:08.147Z,77
2023-01-17T02:57:08.480Z,77
2023-01-17T02:59:07.915Z,77
2023-01-17T03:02:09.247Z,77
2023-01-17T03:03:07.827Z,77
2023-01-17T03:04:08.249Z,77
2023-01-17T03:05:08.691Z,77
2023-01-17T03:06:07.822Z,77
2023-01-17T03:07:08.150Z,77
2023-01-17T03:08:08.507Z,77
2023-01-17T03:09:08.538Z,77
2023-01-17T03:10:08.155Z,77
2023-01-17T03:11:08.415Z,78
2023-01-17T03:12:07.829Z,78
2023-01-17T03:14:07.992Z,78
2023-01-17T03:15:08.488Z,78
2023-01-17T03:16:07.916Z,78
2023-01-17T03:17:08.318Z,78
2023-01-17T03:18:08.608Z,78
2023-01-17T03:19:08.001Z,78
2023-01-17T03:21:08.128Z,78
2023-01-17T03:22:08.366Z,78
2023-01-17T03:23:07.861Z,78
2023-01-17T03:24:08.655Z,78
2023-01-17T03:25:08.139Z,78
2023-01-17T03:26:08.363Z,78
2023-01-17T03:27:08.290Z,78
2023-01-17T03:28:07.692Z,78
2023-01-17T03:29:08.170Z,78
2023-01-17T03:30:07.840Z,78
2023-01-17T03:31:08.437Z,78
2023-01-17T03:33:08.540Z,78
2023-01-17T03:34:08.062Z,78
2023-01-17T03:35:08.523Z,78
2023-01-17T03:36:07.750Z,78
2023-01-17T03:37:08.420Z,78
2023-01-17T03:38:08.734Z,78
2023-01-17T03:39:08.124Z,78
2023-01-17T03:40:08.615Z,78
2023-01-17T03:41:07.421Z,78
2023-01-17T03:42:08.063Z,78
2023-01-17T03:43:08.339Z,78
2023-01-17T03:44:08.663Z,78
2023-01-17T03:45:08.754Z,78
2023-01-17T03:46:08.872Z,78
2023-01-17T03:48:08.366Z,78
2023-01-17T03:49:08.772Z,78
2023-01-17T03:50:08.178Z,78
2023-01-17T03:51:08.171Z,78
2023-01-17T03:52:08.499Z,78
2023-01-17T03:53:07.978Z,78
2023-01-17T03:54:07.829Z,78
2023-01-17T03:55:08.139Z,78
2023-01-17T03:56:08.055Z,78
2023-01-17T03:57:07.973Z,78
2023-01-17T03:58:08.221Z,79
2023-01-17T03:59:10.028Z,79
2023-01-17T04:00:07.988Z,79
2023-01-17T04:01:09.525Z,79
2023-01-17T04:02:08.606Z,79
2023-01-17T04:03:07.762Z,79
2023-01-17T04:04:08.359Z,79
2023-01-17T04:05:08.529Z,79
2023-01-17T04:06:08.300Z,79
2023-01-17T04:07:08.438Z,79
2023-01-17T04:08:08.594Z,79
2023-01-17T04:09:08.068Z,79
2023-01-17T04:10:08.330Z,79
2023-01-17T04:11:08.577Z,79
2023-01-17T04:12:08.171Z,79
2023-01-17T04:13:08.546Z,79
2023-01-17T04:14:08.382Z,79
2023-01-17T04:15:08.660Z,79
2023-01-17T04:16:07.682Z,79
2023-01-17T04:17:08.929Z,79
2023-01-17T04:18:08.445Z,79
2023-01-17T04:19:07.887Z,79
2023-01-17T04:20:08.369Z,79
2023-01-17T04:21:08.580Z,79
2023-01-17T04:22:08.179Z,79
2023-01-17T04:23:08.441Z,79
2023-01-17T04:24:08.641Z,79
2023-01-17T04:25:08.712Z,79
2023-01-17T04:26:08.070Z,79
2023-01-17T04:27:07.886Z,79
2023-01-17T04:29:08.533Z,79
2023-01-17T04:30:07.847Z,79
2023-01-17T04:31:08.378Z,79
2023-01-17T04:32:08.459Z,80
2023-01-17T04:33:07.928Z,80
2023-01-17T04:36:08.005Z,80
2023-01-17T04:37:08.384Z,80
2023-01-17T04:38:07.639Z,80
2023-01-17T04:39:07.893Z,80
2023-01-17T04:40:08.159Z,80
2023-01-17T04:41:08.571Z,80
2023-01-17T04:42:08.083Z,80
2023-01-17T04:43:07.832Z,80
2023-01-17T04:44:08.256Z,80
2023-01-17T04:45:08.651Z,80
2023-01-17T04:46:08.206Z,80
2023-01-17T04:47:08.378Z,80
2023-01-17T04:48:07.798Z,80
2023-01-17T04:49:08.349Z,80
2023-01-17T04:50:08.767Z,80
2023-01-17T04:51:08.257Z,80
2023-01-17T04:52:07.996Z,80
2023-01-17T04:53:08.032Z,80
2023-01-17T04:54:07.991Z,80
2023-01-17T04:55:08.302Z,80
2023-01-17T04:56:07.673Z,80
2023-01-17T04:58:07.971Z,80
2023-01-17T04:59:08.525Z,80
2023-01-17T05:00:08.069Z,80
2023-01-17T05:01:08.266Z,80
2023-01-17T05:02:08.485Z,80
2023-01-17T05:03:08.266Z,80
2023-01-17T05:04:08.397Z,80
2023-01-17T05:05:07.916Z,80
2023-01-17T05:07:08.627Z,80
2023-01-17T05:08:07.968Z,80
2023-01-17T05:09:08.172Z,80
2023-01-17T05:10:07.226Z,80
2023-01-17T05:11:08.727Z,80
2023-01-17T05:12:08.699Z,80
2023-01-17T05:13:07.963Z,80
2023-01-17T05:14:08.644Z,80
2023-01-17T05:15:08.066Z,80
2023-01-17T05:16:08.683Z,80
2023-01-17T05:17:07.853Z,80
2023-01-17T05:18:08.757Z,80
2023-01-17T05:19:08.248Z,80
2023-01-17T05:20:08.146Z,80
2023-01-17T05:21:08.636Z,80
2023-01-17T05:22:08.592Z,80
2023-01-17T05:23:08.544Z,80
2023-01-17T05:24:07.960Z,80
2023-01-17T05:25:08.380Z,80
2023-01-17T05:26:07.770Z,80
2023-01-17T05:27:08.745Z,81
2023-01-17T05:28:07.994Z,81
2023-01-17T05:29:08.462Z,81
2023-01-17T05:30:08.527Z,81
2023-01-17T05:31:08.798Z,81
2023-01-17T05:32:07.787Z,81
2023-01-17T05:33:07.990Z,81
2023-01-17T05:34:08.599Z,81
2023-01-17T05:36:08.375Z,81
2023-01-17T05:37:08.613Z,81
2023-01-17T05:38:08.010Z,81
2023-01-17T05:39:08.685Z,81
2023-01-17T05:41:08.501Z,81
2023-01-17T05:42:07.748Z,81
2023-01-17T05:43:08.168Z,81
2023-01-17T05:44:08.534Z,81
2023-01-17T05:46:08.509Z,81
2023-01-17T05:47:08.456Z,81
2023-01-17T05:48:07.961Z,81
2023-01-17T05:49:08.389Z,81
2023-01-17T05:50:08.603Z,81
2023-01-17T05:51:08.315Z,82
2023-01-17T05:52:08.038Z,82
2023-01-17T05:53:08.210Z,82
2023-01-17T05:54:08.577Z,82
2023-01-17T05:55:08.073Z,82
2023-01-17T05:56:08.499Z,81
2023-01-17T05:57:08.207Z,82
2023-01-17T05:59:07.893Z,82
2023-01-17T06:00:08.476Z,82
2023-01-17T06:01:08.784Z,82
2023-01-17T06:02:07.981Z,82
2023-01-17T06:03:08.465Z,82
2023-01-17T06:04:08.219Z,82
2023-01-17T06:05:09.774Z,82
2023-01-17T06:06:08.125Z,82
2023-01-17T06:07:08.486Z,82
2023-01-17T06:10:07.872Z,82
2023-01-17T06:11:08.313Z,82
2023-01-17T06:12:08.337Z,82
2023-01-17T06:13:08.089Z,82
2023-01-17T06:14:08.583Z,82
2023-01-17T06:15:07.815Z,82
2023-01-17T06:16:08.885Z,82
2023-01-17T06:17:08.740Z,82
2023-01-17T06:18:08.119Z,82
2023-01-17T06:19:08.445Z,82
2023-01-17T06:20:08.298Z,82
2023-01-17T06:21:08.372Z,82
2023-01-17T06:22:07.845Z,82
2023-01-17T06:23:07.388Z,82
2023-01-17T06:24:10.583Z,82
2023-01-17T06:25:07.849Z,82
2023-01-17T06:26:08.202Z,83
2023-01-17T06:27:08.201Z,83
2023-01-17T06:28:08.594Z,83
2023-01-17T06:29:08.173Z,83
2023-01-17T06:30:08.175Z,83
2023-01-17T06:31:08.823Z,83
2023-01-17T06:32:08.143Z,83
2023-01-17T06:33:08.683Z,83
2023-01-17T06:34:07.800Z,83
2023-01-17T06:35:08.203Z,83
2023-01-17T06:36:08.658Z,83
2023-01-17T06:37:07.993Z,83
2023-01-17T06:39:08.474Z,83
2023-01-17T06:40:07.835Z,83
2023-01-17T06:41:08.661Z,83
2023-01-17T06:42:08.525Z,83
2023-01-17T06:43:08.091Z,83
2023-01-17T06:44:08.821Z,83
2023-01-17T06:45:07.977Z,83
2023-01-17T06:46:08.166Z,83
2023-01-17T06:48:08.296Z,83
2023-01-17T06:49:08.524Z,83
2023-01-17T06:50:07.981Z,83
2023-01-17T06:51:08.221Z,83
2023-01-17T06:52:08.546Z,83
2023-01-17T06:53:08.015Z,83
2023-01-17T06:54:08.559Z,83
2023-01-17T06:55:07.929Z,83
2023-01-17T06:57:08.323Z,83
2023-01-17T06:58:07.853Z,83
2023-01-17T06:59:08.099Z,83
2023-01-17T07:00:08.743Z,83
2023-01-17T07:01:07.595Z,83
2023-01-17T07:02:08.297Z,83
2023-01-17T07:03:07.797Z,83
2023-01-17T07:04:08.150Z,83
2023-01-17T07:05:08.466Z,83
2023-01-17T07:06:08.195Z,83
2023-01-17T07:07:07.967Z,83
2023-01-17T07:09:08.649Z,83
2023-01-17T07:10:08.025Z,83
2023-01-17T07:11:08.323Z,83
2023-01-17T07:12:08.587Z,83
2023-01-17T07:13:08.146Z,83
2023-01-17T07:14:08.251Z,84
2023-01-17T07:15:08.527Z,84
2023-01-17T07:16:08.069Z,84
2023-01-17T07:17:08.510Z,84
2023-01-17T07:18:07.996Z,84
2023-01-17T07:19:08.214Z,84
2023-01-17T07:20:08.721Z,84
2023-01-17T07:21:07.927Z,84
2023-01-17T07:22:08.525Z,84
2023-01-17T07:23:08.494Z,84
2023-01-17T07:24:08.163Z,84
2023-01-17T07:25:08.535Z,84
2023-01-17T07:26:08.010Z,84
2023-01-17T07:27:08.589Z,84
2023-01-17T07:28:08.327Z,84
2023-01-17T07:29:08.538Z,84
2023-01-17T07:32:08.431Z,84
2023-01-17T07:33:08.683Z,84
2023-01-17T07:34:07.955Z,84
2023-01-17T07:35:08.336Z,84
2023-01-17T07:36:08.704Z,84
2023-01-17T07:37:07.928Z,84
2023-01-17T07:38:08.148Z,84
2023-01-17T07:39:10.342Z,84
2023-01-17T07:40:07.856Z,84
2023-01-17T07:41:09.330Z,84
2023-01-17T07:42:08.232Z,84
2023-01-17T07:43:07.774Z,84
2023-01-17T07:44:08.331Z,84
2023-01-17T07:45:08.615Z,84
2023-01-17T07:46:08.655Z,84
2023-01-17T07:47:08.299Z,84
2023-01-17T07:48:08.810Z,84
2023-01-17T07:49:08.544Z,84
2023-01-17T07:50:07.954Z,84
2023-01-17T07:51:08.514Z,85
2023-01-17T07:52:07.822Z,84
2023-01-17T07:53:08.155Z,85
2023-01-17T07:54:08.290Z,85
2023-01-17T07:55:08.223Z,85
2023-01-17T07:56:08.677Z,85
2023-01-17T07:57:07.900Z,85
2023-01-17T07:58:09.501Z,85
2023-01-17T07:59:08.696Z,85
2023-01-17T08:00:08.011Z,85
2023-01-17T08:01:08.676Z,85
2023-01-17T08:02:08.733Z,85
2023-01-17T08:03:07.901Z,85
2023-01-17T08:04:08.460Z,85
2023-01-17T08:05:08.442Z,85
2023-01-17T08:06:08.741Z,85
2023-01-17T08:07:08.012Z,85
2023-01-17T08:08:08.396Z,85
2023-01-17T08:09:07.797Z,85
2023-01-17T08:10:08.299Z,85
2023-01-17T08:11:08.647Z,85
2023-01-17T08:12:07.010Z,85
2023-01-17T08:13:08.199Z,85
2023-01-17T08:14:08.765Z,85
2023-01-17T08:15:08.362Z,85
2023-01-17T08:16:08.187Z,85
2023-01-17T08:17:08.190Z,85
2023-01-17T08:18:08.099Z,85
2023-01-17T08:19:08.613Z,85
2023-01-17T08:20:07.959Z,85
2023-01-17T08:21:08.213Z,85
2023-01-17T08:22:08.129Z,85
2023-01-17T08:23:08.386Z,85
2023-01-17T08:26:08.414Z,85
2023-01-17T08:27:07.520Z,85
2023-01-17T08:28:08.813Z,85
2023-01-17T08:29:08.251Z,85
2023-01-17T08:30:08.605Z,85
2023-01-17T08:31:08.376Z,85
2023-01-17T08:32:07.922Z,85
2023-01-17T08:33:08.236Z,84
2023-01-17T08:34:08.535Z,84
2023-01-17T08:35:07.805Z,84
2023-01-17T08:36:06.994Z,84
2023-01-17T08:37:08.264Z,84
2023-01-17T08:38:07.746Z,84
2023-01-17T08:39:08.237Z,84
2023-01-17T08:40:08.095Z,84
2023-01-17T08:41:08.608Z,84
2023-01-17T08:43:08.335Z,84
2023-01-17T08:44:07.781Z,84
2023-01-17T08:45:08.076Z,84
2023-01-17T08:46:08.652Z,84
2023-01-17T08:47:07.753Z,83
2023-01-17T08:48:08.187Z,83
2023-01-17T08:49:08.595Z,83
2023-01-17T08:50:08.157Z,83
2023-01-17T08:51:08.465Z,83
2023-01-17T08:52:07.790Z,83
2023-01-17T08:53:08.657Z,83
2023-01-17T08:54:08.004Z,83
2023-01-17T08:55:08.337Z,83
2023-01-17T08:56:08.002Z,83
2023-01-17T08:57:08.213Z,83
2023-01-17T08:58:08.615Z,83
2023-01-17T08:59:07.763Z,83
2023-01-17T09:00:08.374Z,83
2023-01-17T09:01:09.115Z,82
2023-01-17T09:02:08.705Z,82
2023-01-17T09:03:08.350Z,82
2023-01-17T09:04:08.181Z,82
2023-01-17T09:05:08.004Z,82
2023-01-17T09:06:08.402Z,82
2023-01-17T09:07:07.950Z,82
2023-01-17T09:08:08.042Z,82
2023-01-17T09:09:08.284Z,82
2023-01-17T09:10:08.760Z,82
2023-01-17T09:11:07.992Z,82
2023-01-17T09:12:08.070Z,81
2023-01-17T09:13:08.489Z,81
2023-01-17T09:14:07.882Z,81
2023-01-17T09:15:08.261Z,81
2023-01-17T09:17:07.823Z,81
2023-01-17T09:18:08.428Z,81
2023-01-17T09:19:08.037Z,80
2023-01-17T09:20:07.832Z,80
2023-01-17T09:21:08.085Z,80
2023-01-17T09:22:08.705Z,80
2023-01-17T09:23:07.932Z,80
2023-01-17T09:24:08.573Z,80
2023-01-17T09:25:06.663Z,80
2023-01-17T09:26:08.075Z,80
2023-01-17T09:27:08.481Z,80
2023-01-17T09:28:08.165Z,80
2023-01-17T09:29:08.349Z,80
2023-01-17T09:30:08.004Z,80
2023-01-17T09:31:08.897Z,80
2023-01-17T09:32:08.117Z,79
2023-01-17T09:33:08.257Z,79
2023-01-17T09:34:08.635Z,79
2023-01-17T09:35:07.990Z,79
2023-01-17T09:36:07.976Z,79
2023-01-17T09:37:08.396Z,78
2023-01-17T09:38:07.852Z,78
2023-01-17T09:39:07.862Z,78
2023-01-17T09:40:08.437Z,78
2023-01-17T09:41:07.834Z,78
2023-01-17T09:43:08.769Z,78
2023-01-17T09:44:08.458Z,77
2023-01-17T09:45:07.853Z,77
2023-01-17T09:46:08.025Z,77
2023-01-17T09:47:08.413Z,76
2023-01-17T09:48:08.656Z,76
2023-01-17T09:49:07.965Z,76
2023-01-17T09:50:08.274Z,77
2023-01-17T09:51:07.803Z,77
2023-01-17T09:52:08.753Z,77
2023-01-17T09:53:07.979Z,77
2023-01-17T09:54:08.247Z,76
2023-01-17T09:55:10.817Z,76
2023-01-17T09:56:08.183Z,76
2023-01-17T09:57:08.097Z,76
2023-01-17T09:58:08.419Z,76
2023-01-17T09:59:07.942Z,75
2023-01-17T10:00:10.199Z,75
2023-01-17T10:01:09.043Z,75
2023-01-17T10:04:08.198Z,74
2023-01-17T10:05:08.857Z,74
2023-01-17T10:06:08.059Z,74
2023-01-17T10:07:08.335Z,74
2023-01-17T10:09:08.096Z,74
2023-01-17T10:11:08.209Z,74
2023-01-17T10:12:08.555Z,74
2023-01-17T10:13:08.632Z,74
2023-01-17T10:14:08.071Z,74
2023-01-17T10:15:08.594Z,74
2023-01-17T10:16:08.480Z,73
2023-01-17T10:17:08.017Z,73
2023-01-17T10:18:09.315Z,73
2023-01-17T10:19:07.744Z,73
2023-01-17T10:20:08.101Z,72
2023-01-17T10:21:08.518Z,72
2023-01-17T10:22:08.133Z,72
2023-01-17T10:24:08.808Z,72
2023-01-17T10:25:08.062Z,72
2023-01-17T10:26:08.554Z,71
2023-01-17T10:27:08.009Z,71
2023-01-17T10:28:08.292Z,71
2023-01-17T10:29:08.369Z,71
2023-01-17T10:30:08.661Z,71
2023-01-17T10:31:08.339Z,71
2023-01-17T10:32:08.491Z,71
2023-01-17T10:33:07.694Z,71
2023-01-17T10:34:08.090Z,71
2023-01-17T10:35:08.168Z,71
2023-01-17T10:36:08.616Z,70
2023-01-17T10:37:07.970Z,70
2023-01-17T10:38:08.579Z,70
2023-01-17T10:39:08.006Z,69
2023-01-17T10:40:08.146Z,69
2023-01-17T10:41:08.590Z,69
2023-01-17T10:42:08.076Z,69
2023-01-17T10:43:08.154Z,69
2023-01-17T10:44:08.165Z,69
2023-01-17T10:45:08.375Z,68
2023-01-17T10:46:08.139Z,68
2023-01-17T10:47:08.411Z,68
2023-01-17T10:48:07.980Z,68
2023-01-17T10:49:08.432Z,68
2023-01-17T10:50:07.903Z,68
2023-01-17T10:51:08.461Z,68
2023-01-17T10:52:08.747Z,67
2023-01-17T10:53:08.040Z,67
2023-01-17T10:54:08.405Z,66
2023-01-17T10:55:08.689Z,66
2023-01-17T10:56:08.108Z,66
2023-01-17T10:57:08.416Z,66
2023-01-17T10:58:07.917Z,66
2023-01-17T10:59:08.513Z,66
2023-01-17T11:00:08.188Z,66
2023-01-17T11:01:09.111Z,65
2023-01-17T11:02:08.417Z,65
2023-01-17T11:03:08.638Z,65
2023-01-17T11:04:07.875Z,65
2023-01-17T11:05:07.913Z,65
2023-01-17T11:06:08.531Z,65
2023-01-17T11:07:08.427Z,64
2023-01-17T11:08:07.825Z,64
2023-01-17T11:09:08.150Z,64
2023-01-17T11:10:08.497Z,64
2023-01-17T11:11:07.865Z,63
2023-01-17T11:12:08.261Z,63
2023-01-17T11:13:08.359Z,63
2023-01-17T11:15:07.899Z,63
2023-01-17T11:16:09.041Z,63
2023-01-17T11:17:07.859Z,63
2023-01-17T11:18:08.140Z,63
2023-01-17T11:19:08.438Z,63
2023-01-17T11:20:07.988Z,63
2023-01-17T11:21:08.380Z,63
2023-01-17T11:22:08.754Z,63
2023-01-17T11:23:08.137Z,63
2023-01-17T11:24:08.722Z,63
2023-01-17T11:25:07.860Z,63
2023-01-17T11:26:08.341Z,63
2023-01-17T11:27:08.657Z,62
2023-01-17T11:28:08.227Z,62
2023-01-17T11:29:08.345Z,62
2023-01-17T11:30:07.806Z,62
2023-01-17T11:31:08.352Z,62
2023-01-17T11:32:08.529Z,62
2023-01-17T11:33:07.925Z,62
2023-01-17T11:34:08.114Z,61
2023-01-17T11:35:08.678Z,61
2023-01-17T11:36:08.132Z,61
2023-01-17T11:37:08.219Z,61
2023-01-17T11:38:08.151Z,61
2023-01-17T11:39:08.387Z,61
2023-01-17T11:40:08.745Z,61
2023-01-17T11:41:08.245Z,61
2023-01-17T11:42:08.618Z,61
2023-01-17T11:43:08.083Z,61
2023-01-17T11:44:08.218Z,61
2023-01-17T11:45:08.571Z,61
2023-01-17T11:46:08.716Z,61
2023-01-17T11:47:08.470Z,61
2023-01-17T11:48:07.740Z,62
2023-01-17T11:49:07.908Z,62
2023-01-17T11:50:08.208Z,62
2023-01-17T11:51:07.612Z,62
2023-01-17T11:52:07.888Z,62
2023-01-17T11:53:08.384Z,62
2023-01-17T11:54:08.745Z,61
2023-01-17T11:55:07.955Z,61
2023-01-17T11:56:08.817Z,62
2023-01-17T11:57:08.081Z,62
2023-01-17T11:58:08.449Z,62
2023-01-17T11:59:07.784Z,62
2023-01-17T12:00:08.792Z,62
2023-01-17T12:01:08.203Z,62
2023-01-17T12:02:08.173Z,62
2023-01-17T12:03:07.733Z,62
2023-01-17T12:04:08.751Z,62
2023-01-17T12:05:08.961Z,62
2023-01-17T12:06:07.564Z,62
2023-01-17T12:07:07.858Z,62
2023-01-17T12:08:08.013Z,62
2023-01-17T12:09:08.733Z,61
2023-01-17T12:10:08.303Z,61
2023-01-17T12:11:08.568Z,61
2023-01-17T12:12:10.576Z,62
2023-01-17T12:13:08.207Z,61
2023-01-17T12:14:08.061Z,61
2023-01-17T12:15:08.369Z,61
2023-01-17T12:16:08.244Z,61
2023-01-17T12:17:08.039Z,61
2023-01-17T12:19:07.800Z,61
2023-01-17T12:20:08.598Z,61
2023-01-17T12:21:08.004Z,61
2023-01-17T12:22:08.054Z,61
2023-01-17T12:23:07.905Z,61
2023-01-17T12:24:08.255Z,61
2023-01-17T12:25:08.606Z,62
2023-01-17T12:26:07.947Z,62
2023-01-17T12:27:08.352Z,61
2023-01-17T12:28:08.627Z,61
2023-01-17T12:29:08.049Z,61
2023-01-17T12:30:08.659Z,61
2023-01-17T12:31:08.103Z,61
2023-01-17T12:32:08.610Z,61
2023-01-17T12:33:08.363Z,61
2023-01-17T12:34:11.257Z,61
2023-01-17T12:35:08.409Z,61
2023-01-17T12:36:07.845Z,61
2023-01-17T12:37:08.028Z,61
2023-01-17T12:38:20.786Z,61
2023-01-17T12:39:08.008Z,61
2023-01-17T12:40:08.475Z,61
2023-01-17T12:41:07.962Z,61
2023-01-17T12:42:08.526Z,61
2023-01-17T12:43:07.761Z,61
2023-01-17T12:44:08.126Z,62
2023-01-17T12:45:08.596Z,62
2023-01-17T12:46:08.376Z,62
2023-01-17T12:47:08.531Z,62
2023-01-17T12:49:07.841Z,62
2023-01-17T12:50:08.302Z,62
2023-01-17T12:51:08.644Z,62
2023-01-17T12:52:07.998Z,62
2023-01-17T12:53:08.556Z,62
2023-01-17T12:54:07.911Z,63
2023-01-17T12:55:07.557Z,63
2023-01-17T12:56:07.929Z,63
2023-01-17T12:57:08.144Z,63
2023-01-17T12:58:08.409Z,63
2023-01-17T12:59:07.846Z,63
2023-01-17T13:00:08.230Z,63
2023-01-17T13:01:08.933Z,63
2023-01-17T13:02:08.288Z,63
2023-01-17T13:03:08.518Z,63
2023-01-17T13:04:07.886Z,63
2023-01-17T13:05:07.860Z,63
2023-01-17T13:06:08.453Z,63
2023-01-17T13:07:07.897Z,63
2023-01-17T13:08:08.251Z,63
2023-01-17T13:09:08.791Z,63
2023-01-17T13:10:08.093Z,63
2023-01-17T13:11:08.411Z,63
2023-01-17T13:12:07.531Z,63
2023-01-17T13:13:08.185Z,63
2023-01-17T13:14:08.155Z,63
2023-01-17T13:15:08.611Z,63
2023-01-17T13:16:08.072Z,63
2023-01-17T13:17:08.530Z,63
2023-01-17T13:18:07.866Z,63
2023-01-17T13:19:08.419Z,63
2023-01-17T13:20:08.606Z,64
2023-01-17T13:21:07.858Z,64
2023-01-17T13:22:08.214Z,64
2023-01-17T13:23:08.737Z,64
2023-01-17T13:25:08.156Z,64
2023-01-17T13:26:08.571Z,64
2023-01-17T13:27:08.706Z,64
2023-01-17T13:28:07.896Z,64
2023-01-17T13:29:08.052Z,63
2023-01-17T13:30:08.537Z,64
2023-01-17T13:31:08.893Z,64
2023-01-17T13:32:07.957Z,64
2023-01-17T13:33:08.576Z,64
2023-01-17T13:34:08.005Z,64
2023-01-17T13:35:08.358Z,64
2023-01-17T13:36:08.370Z,64
2023-01-17T13:37:08.754Z,64
2023-01-17T13:38:08.058Z,64
2023-01-17T13:39:08.401Z,64
2023-01-17T13:40:07.985Z,64
2023-01-17T13:41:08.315Z,64
2023-01-17T13:42:08.627Z,63
2023-01-17T13:43:07.979Z,64
2023-01-17T13:44:08.272Z,63
2023-01-17T13:45:08.861Z,63
2023-01-17T13:46:09.137Z,64
2023-01-17T13:47:08.062Z,63
2023-01-17T13:48:08.523Z,64
2023-01-17T13:49:07.789Z,64
2023-01-17T13:50:08.392Z,64
2023-01-17T13:51:08.407Z,64
2023-01-17T13:52:08.462Z,64
2023-01-17T13:53:08.575Z,64
2023-01-17T13:54:09.551Z,64
2023-01-17T13:55:08.238Z,64
2023-01-17T13:56:08.554Z,64
2023-01-17T13:57:07.920Z,64
2023-01-17T13:58:08.381Z,64
2023-01-17T13:59:08.016Z,64
2023-01-17T14:00:08.212Z,64
2023-01-17T14:01:08.607Z,64
2023-01-17T14:03:08.461Z,64
2023-01-17T14:04:08.775Z,65
2023-01-17T14:05:07.145Z,65
2023-01-17T14:06:07.868Z,65
2023-01-17T14:07:08.120Z,65
2023-01-17T14:08:08.612Z,65
2023-01-17T14:09:07.875Z,65
2023-01-17T14:10:08.802Z,65
2023-01-17T14:13:08.529Z,65
2023-01-17T14:14:08.209Z,65
2023-01-17T14:15:08.541Z,65
2023-01-17T14:16:08.072Z,65
2023-01-17T14:17:08.253Z,65
2023-01-17T14:18:08.609Z,65
2023-01-17T14:19:08.008Z,65
2023-01-17T14:20:08.404Z,65
2023-01-17T14:21:07.703Z,65
2023-01-17T14:22:09.664Z,65
2023-01-17T14:23:07.632Z,65
2023-01-17T14:24:08.348Z,65
2023-01-17T14:25:08.753Z,65
2023-01-17T14:26:08.099Z,65
2023-01-17T14:27:08.452Z,65
2023-01-17T14:28:07.979Z,65
2023-01-17T14:29:08.207Z,65
2023-01-17T14:30:08.739Z,65
2023-01-17T14:31:08.666Z,65
2023-01-17T14:32:08.267Z,66
2023-01-17T14:33:07.393Z,66
2023-01-17T14:34:08.594Z,66
2023-01-17T14:35:08.732Z,66
2023-01-17T14:36:08.259Z,66
2023-01-17T14:37:08.577Z,66
2023-01-17T14:38:08.081Z,66
2023-01-17T14:39:08.984Z,66
2023-01-17T14:40:08.277Z,66
2023-01-17T14:41:08.343Z,66
2023-01-17T14:42:08.202Z,66
2023-01-17T14:43:08.612Z,66
2023-01-17T14:44:08.621Z,66
2023-01-17T14:45:07.856Z,66
2023-01-17T14:47:08.191Z,66
2023-01-17T14:48:08.612Z,66
2023-01-17T14:49:07.923Z,66
2023-01-17T14:50:08.393Z,66
2023-01-17T14:51:08.701Z,67
2023-01-17T14:52:08.094Z,67
2023-01-17T14:53:08.697Z,67
2023-01-17T14:54:07.953Z,67
2023-01-17T14:55:11.713Z,67
2023-01-17T14:56:08.102Z,67
2023-01-17T14:57:08.498Z,67
2023-01-17T14:58:08.021Z,67
2023-01-17T14:59:07.956Z,67
2023-01-17T15:00:08.791Z,67
2023-01-17T15:01:09.083Z,67
2023-01-17T15:02:15.206Z,66
2023-01-17T15:03:08.590Z,66
2023-01-17T15:04:08.636Z,66
2023-01-17T15:05:08.064Z,66
2023-01-17T15:06:11.019Z,66
2023-01-17T15:07:07.914Z,67
2023-01-17T15:09:08.640Z,67
2023-01-17T15:10:08.251Z,67
2023-01-17T15:11:07.227Z,67
2023-01-17T15:12:08.887Z,67